Time;durP1;ratioP1;P1;durP2;ratioP2;P2;SDS_P1;SDS_P2;PMS_P1;PMS_P2;Temp;Humidity;BMP_temperature;BMP_pressure;BME280_temperature;BME280_humidity;BME280_pressure;Samples;Min_cycle;Max_cycle;Signal;HPM_P1;HPM_P2
2021/06/23 00:01:16;;;;;;;;;;;25.00;99.90;;;;;;5131222;27;21653;-72
2021/06/23 00:03:42;;;;;;;;;;;24.90;99.90;;;;;;5146189;27;19907;-72
2021/06/23 00:06:08;;;;;;;;;;;25.00;99.90;;;;;;5149645;27;20002;-72
2021/06/23 00:08:33;;;;;;;;;;;24.80;99.90;;;;;;5146368;27;20275;-72
2021/06/23 00:10:59;;;;;;;;;;;24.80;99.90;;;;;;5136385;27;19912;-73
2021/06/23 00:13:27;;;;;;;;;;;24.80;99.90;;;;;;5139880;27;19915;-72
2021/06/23 00:15:53;;;;;;;;;;;24.80;99.90;;;;;;5135467;27;19915;-72
2021/06/23 00:18:18;;;;;;;;;;;24.70;99.90;;;;;;5123052;27;19967;-72
2021/06/23 00:20:44;;;;;;;;;;;24.60;99.90;;;;;;5111226;28;20297;-72
2021/06/23 00:23:09;;;;;;;;;;;24.50;99.90;;;;;;5145233;27;20005;-72
2021/06/23 00:25:35;;;;;;;;;;;24.60;99.90;;;;;;5135371;27;19915;-74
2021/06/23 00:28:00;;;;;;;;;;;24.60;99.90;;;;;;5116777;27;19912;-72
2021/06/23 00:30:26;;;;;;;;;;;24.80;99.90;;;;;;5135120;27;19958;-73
2021/06/23 00:32:53;;;;;;;;;;;24.80;99.90;;;;;;5130154;27;20404;-74
2021/06/23 00:35:18;;;;;;;;;;;24.70;99.90;;;;;;5142264;27;19911;-73
2021/06/23 00:37:44;;;;;;;;;;;24.60;99.90;;;;;;5128559;27;19922;-72
2021/06/23 00:40:10;;;;;;;;;;;24.60;99.90;;;;;;5140649;27;19909;-72
2021/06/23 00:42:36;;;;;;;;;;;24.80;99.90;;;;;;5136938;27;20360;-72
2021/06/23 00:45:03;;;;;;;;;;;24.70;99.90;;;;;;5144253;27;19915;-74
2021/06/23 00:47:29;;;;;;;;;;;24.80;99.90;;;;;;5142019;27;20334;-74
2021/06/23 00:49:55;;;;;;;;;;;24.90;99.90;;;;;;5135117;27;19911;-72
2021/06/23 00:52:20;;;;;;;;;;;24.90;99.90;;;;;;5137061;27;19919;-73
2021/06/23 00:54:47;;;;;;;;;;;25.00;99.90;;;;;;5131629;27;19964;-73
2021/06/23 00:57:12;;;;;;;;;;;25.00;99.90;;;;;;5117221;27;20285;-74
2021/06/23 00:59:38;;;;;;;;;;;24.90;99.90;;;;;;5139951;27;19916;-72
2021/06/23 01:02:04;;;;;;;;;;;25.00;99.90;;;;;;5130951;27;19915;-72
2021/06/23 01:04:29;;;;;;;;;;;25.00;99.90;;;;;;5136442;27;19930;-72
2021/06/23 01:06:55;;;;;;;;;;;25.00;99.90;;;;;;5138939;27;19935;-73
2021/06/23 01:09:21;;;;;;;;;;;24.80;99.90;;;;;;5134863;27;19937;-73
2021/06/23 01:11:56;;;;;;;;;;;24.80;99.90;;;;;;5113636;27;19923;-73
2021/06/23 01:14:22;;;;;;;;;;;24.60;99.90;;;;;;5131415;27;19912;-74
2021/06/23 01:16:48;;;;;;;;;;;24.60;99.90;;;;;;5138482;27;19917;-72
2021/06/23 01:19:13;;;;;;;;;;;24.60;99.90;;;;;;5135536;27;20390;-73
2021/06/23 01:21:43;;;;;;;;;;;24.70;99.90;;;;;;5138541;27;19922;-72
2021/06/23 01:24:08;;;;;;;;;;;24.60;99.90;;;;;;5142877;27;19911;-72
2021/06/23 01:26:34;;;;;;;;;;;24.70;99.90;;;;;;5132920;27;20345;-72
2021/06/23 01:29:00;;;;;;;;;;;24.70;99.90;;;;;;5141546;27;19908;-72
2021/06/23 01:31:25;;;;;;;;;;;24.70;99.90;;;;;;5152812;27;20336;-72
2021/06/23 01:33:51;;;;;;;;;;;24.70;99.90;;;;;;5134407;27;20273;-73
2021/06/23 01:36:17;;;;;;;;;;;24.80;99.90;;;;;;5124623;27;19922;-72
2021/06/23 01:38:42;;;;;;;;;;;24.80;99.90;;;;;;5140433;27;19975;-72
2021/06/23 01:41:08;;;;;;;;;;;24.90;99.90;;;;;;5130354;27;19923;-72
2021/06/23 01:43:34;;;;;;;;;;;25.00;99.90;;;;;;5112235;27;20257;-71
2021/06/23 01:45:59;;;;;;;;;;;24.90;99.90;;;;;;5139210;27;19915;-72
2021/06/23 01:48:25;;;;;;;;;;;24.80;99.90;;;;;;5122507;27;19911;-72
2021/06/23 01:50:58;;;;;;;;;;;24.60;99.90;;;;;;5132715;27;19937;-72
2021/06/23 01:53:24;;;;;;;;;;;24.60;99.90;;;;;;5136796;27;20262;-72
2021/06/23 01:55:50;;;;;;;;;;;24.50;99.90;;;;;;5132869;27;19918;-72
2021/06/23 01:58:16;;;;;;;;;;;24.40;99.90;;;;;;5133671;27;19952;-74
2021/06/23 02:00:44;;;;;;;;;;;24.40;99.90;;;;;;5134121;27;20333;-72
2021/06/23 02:03:14;;;;;;;;;;;24.40;99.90;;;;;;5117060;27;20318;-72
2021/06/23 02:05:49;;;;;;;;;;;24.50;99.90;;;;;;5141378;27;20312;-72
2021/06/23 02:08:17;;;;;;;;;;;24.50;99.90;;;;;;5139507;27;19921;-73
2021/06/23 02:10:47;;;;;;;;;;;24.50;99.90;;;;;;5130847;27;19942;-73
2021/06/23 02:13:19;;;;;;;;;;;24.60;99.90;;;;;;5107267;27;19977;-73
2021/06/23 02:15:46;;;;;;;;;;;24.40;99.90;;;;;;5122467;27;19915;-73
2021/06/23 02:18:11;;;;;;;;;;;24.30;99.90;;;;;;5149764;27;20436;-72
2021/06/23 02:20:37;;;;;;;;;;;24.30;99.90;;;;;;5126730;27;19916;-73
2021/06/23 02:23:07;;;;;;;;;;;24.30;99.90;;;;;;5121478;27;20006;-73
2021/06/23 02:25:32;;;;;;;;;;;24.40;99.90;;;;;;5143172;27;19922;-72
2021/06/23 02:27:58;;;;;;;;;;;24.50;99.90;;;;;;5136878;27;19911;-72
2021/06/23 02:30:24;;;;;;;;;;;24.60;99.90;;;;;;5125893;27;19912;-73
2021/06/23 02:32:50;;;;;;;;;;;24.50;99.90;;;;;;5136424;27;20014;-73
2021/06/23 02:35:16;;;;;;;;;;;24.50;99.90;;;;;;5125367;27;19912;-74
2021/06/23 02:37:41;;;;;;;;;;;24.50;99.90;;;;;;5125076;27;19911;-74
2021/06/23 02:40:08;;;;;;;;;;;24.50;99.90;;;;;;5126725;27;19911;-73
2021/06/23 02:42:34;;;;;;;;;;;24.50;99.90;;;;;;5135276;27;20290;-74
2021/06/23 02:44:59;;;;;;;;;;;24.50;99.90;;;;;;5140611;27;19930;-74
2021/06/23 02:47:25;;;;;;;;;;;24.40;99.90;;;;;;5131702;27;20395;-73
2021/06/23 02:49:51;;;;;;;;;;;24.40;99.90;;;;;;5130737;27;19922;-74
2021/06/23 02:52:17;;;;;;;;;;;24.30;99.90;;;;;;5135297;27;20292;-74
2021/06/23 02:54:43;;;;;;;;;;;24.20;99.90;;;;;;5149149;27;19915;-73
2021/06/23 02:57:09;;;;;;;;;;;24.20;99.90;;;;;;5120125;28;19919;-73
2021/06/23 02:59:35;;;;;;;;;;;24.20;99.90;;;;;;5126833;27;20273;-72
2021/06/23 03:02:01;;;;;;;;;;;24.30;99.90;;;;;;5134695;27;20257;-72
2021/06/23 03:04:27;;;;;;;;;;;24.40;99.90;;;;;;5128190;27;19972;-74
2021/06/23 03:06:53;;;;;;;;;;;24.40;99.90;;;;;;5124360;27;19911;-72
2021/06/23 03:09:19;;;;;;;;;;;24.40;99.90;;;;;;5136699;27;21422;-73
2021/06/23 03:11:44;;;;;;;;;;;24.20;99.90;;;;;;5111854;28;19964;-74
2021/06/23 03:14:10;;;;;;;;;;;24.20;99.90;;;;;;5137070;27;19912;-72
2021/06/23 03:16:36;;;;;;;;;;;24.30;99.90;;;;;;5147112;27;19919;-73
2021/06/23 03:19:02;;;;;;;;;;;24.40;99.90;;;;;;5141662;27;19915;-72
2021/06/23 03:21:27;;;;;;;;;;;24.40;99.90;;;;;;5130209;27;19915;-73
2021/06/23 03:23:53;;;;;;;;;;;24.40;99.90;;;;;;5150904;27;19911;-73
2021/06/23 03:26:19;;;;;;;;;;;24.40;99.90;;;;;;5115585;27;19911;-74
2021/06/23 03:28:45;;;;;;;;;;;24.50;99.90;;;;;;5128248;27;19921;-73
2021/06/23 03:31:11;;;;;;;;;;;24.50;99.90;;;;;;5142695;27;19918;-73
2021/06/23 03:33:38;;;;;;;;;;;24.50;99.90;;;;;;5136279;27;19911;-73
2021/06/23 03:36:04;;;;;;;;;;;24.50;99.90;;;;;;5137277;27;19911;-72
2021/06/23 03:38:30;;;;;;;;;;;24.50;99.90;;;;;;5145287;27;20377;-75
2021/06/23 03:40:55;;;;;;;;;;;24.40;99.90;;;;;;5136135;27;19912;-73
2021/06/23 03:43:21;;;;;;;;;;;24.40;99.90;;;;;;5140936;27;20006;-74
2021/06/23 03:45:47;;;;;;;;;;;24.30;99.90;;;;;;5125212;27;19994;-74
2021/06/23 03:48:13;;;;;;;;;;;24.30;99.90;;;;;;5124938;27;19947;-74
2021/06/23 03:50:39;;;;;;;;;;;24.40;99.90;;;;;;5144065;27;19914;-74
2021/06/23 03:53:05;;;;;;;;;;;24.50;99.90;;;;;;5137387;27;19931;-73
2021/06/23 03:55:31;;;;;;;;;;;24.50;99.90;;;;;;5144004;27;19911;-73
2021/06/23 03:57:57;;;;;;;;;;;24.50;99.90;;;;;;5124592;27;20273;-73
2021/06/23 04:00:24;;;;;;;;;;;24.60;99.90;;;;;;5136187;27;19998;-74
2021/06/23 04:02:50;;;;;;;;;;;24.60;99.90;;;;;;5107116;27;19933;-74
2021/06/23 04:05:15;;;;;;;;;;;24.60;99.90;;;;;;5136323;27;19912;-74
2021/06/23 04:07:41;;;;;;;;;;;24.60;99.90;;;;;;5141017;27;20504;-74
2021/06/23 04:10:07;;;;;;;;;;;24.60;99.90;;;;;;5134882;27;19918;-73
2021/06/23 04:12:32;;;;;;;;;;;24.60;99.90;;;;;;5137096;27;19968;-73
2021/06/23 04:14:58;;;;;;;;;;;24.60;99.90;;;;;;5143474;27;19911;-73
2021/06/23 04:17:24;;;;;;;;;;;24.60;99.90;;;;;;5132859;27;19911;-73
2021/06/23 04:19:49;;;;;;;;;;;24.70;99.90;;;;;;5128113;27;19916;-73
2021/06/23 04:22:15;;;;;;;;;;;24.70;99.90;;;;;;5139352;27;20399;-73
2021/06/23 04:24:40;;;;;;;;;;;24.70;99.90;;;;;;5133736;27;20411;-73
2021/06/23 04:27:06;;;;;;;;;;;24.70;99.90;;;;;;5116086;27;19962;-75
2021/06/23 04:29:32;;;;;;;;;;;24.60;99.90;;;;;;5136587;27;19911;-73
2021/06/23 04:31:57;;;;;;;;;;;24.80;99.90;;;;;;5136605;27;19922;-74
2021/06/23 04:34:23;;;;;;;;;;;24.70;99.90;;;;;;5128853;27;19938;-75
2021/06/23 04:36:49;;;;;;;;;;;24.60;99.90;;;;;;5131841;27;19951;-74
2021/06/23 04:39:14;;;;;;;;;;;24.60;99.90;;;;;;5144545;27;19922;-75
2021/06/23 04:41:40;;;;;;;;;;;24.70;99.90;;;;;;5137659;27;20010;-74
2021/06/23 04:44:05;;;;;;;;;;;24.70;99.90;;;;;;5129497;27;19915;-74
2021/06/23 04:46:33;;;;;;;;;;;24.80;99.90;;;;;;5145545;27;20385;-74
2021/06/23 04:48:59;;;;;;;;;;;24.90;99.90;;;;;;5117068;27;19924;-73
2021/06/23 04:51:25;;;;;;;;;;;25.00;99.90;;;;;;5117344;27;19940;-73
2021/06/23 04:53:51;;;;;;;;;;;25.10;99.90;;;;;;5140588;27;19911;-74
2021/06/23 04:56:16;;;;;;;;;;;25.20;99.90;;;;;;5133863;27;20341;-75
2021/06/23 04:58:42;;;;;;;;;;;25.30;99.90;;;;;;5140765;27;19912;-73
2021/06/23 05:01:07;;;;;;;;;;;25.30;99.90;;;;;;5130800;27;20305;-74
2021/06/23 05:03:33;;;;;;;;;;;25.40;99.90;;;;;;5141941;27;19919;-76
2021/06/23 05:06:00;;;;;;;;;;;25.40;99.90;;;;;;5129926;27;19911;-74
2021/06/23 05:08:26;;;;;;;;;;;25.50;99.90;;;;;;5116038;27;20380;-74
2021/06/23 05:10:52;;;;;;;;;;;25.60;99.90;;;;;;5127291;27;20300;-74
2021/06/23 05:13:18;;;;;;;;;;;25.70;99.90;;;;;;5138872;27;19918;-75
2021/06/23 05:15:43;;;;;;;;;;;25.80;99.90;;;;;;5141909;27;19907;-74
2021/06/23 05:18:09;;;;;;;;;;;25.70;99.90;;;;;;5137035;27;20557;-73
2021/06/23 05:20:34;;;;;;;;;;;25.80;99.90;;;;;;5135364;27;19926;-74
2021/06/23 05:23:00;;;;;;;;;;;25.90;99.90;;;;;;5142546;27;20433;-74
2021/06/23 05:25:25;;;;;;;;;;;26.10;99.90;;;;;;5107609;27;20399;-74
2021/06/23 05:27:51;;;;;;;;;;;26.10;99.90;;;;;;5121684;27;19915;-73
2021/06/23 05:30:17;;;;;;;;;;;26.30;99.90;;;;;;5126548;27;19911;-76
2021/06/23 05:32:43;;;;;;;;;;;26.40;99.90;;;;;;5135815;27;19915;-73
2021/06/23 05:35:08;;;;;;;;;;;26.50;99.90;;;;;;5133840;27;19972;-73
2021/06/23 05:37:34;;;;;;;;;;;26.50;99.90;;;;;;5132151;27;19907;-66
2021/06/23 05:40:00;;;;;;;;;;;26.50;99.90;;;;;;5132285;27;19972;-68
2021/06/23 05:42:25;;;;;;;;;;;26.60;99.90;;;;;;5137513;27;19915;-67
2021/06/23 05:44:51;;;;;;;;;;;26.60;99.90;;;;;;5122149;27;20014;-67
2021/06/23 05:47:16;;;;;;;;;;;26.60;99.90;;;;;;5140399;27;19918;-65
2021/06/23 05:49:42;;;;;;;;;;;26.60;99.90;;;;;;5126402;27;19919;-66
2021/06/23 05:52:07;;;;;;;;;;;26.60;99.90;;;;;;5116895;27;19923;-67
2021/06/23 05:54:33;;;;;;;;;;;26.60;99.90;;;;;;5153184;27;19914;-67
2021/06/23 05:56:59;;;;;;;;;;;26.70;99.90;;;;;;5133192;27;19911;-68
2021/06/23 05:59:24;;;;;;;;;;;26.70;99.90;;;;;;5134272;27;19918;-67
2021/06/23 06:01:50;;;;;;;;;;;26.80;99.90;;;;;;5122459;27;20049;-68
2021/06/23 06:04:16;;;;;;;;;;;26.80;99.90;;;;;;5127828;27;20055;-68
2021/06/23 06:06:42;;;;;;;;;;;26.90;99.90;;;;;;5132663;27;20345;-67
2021/06/23 06:09:07;;;;;;;;;;;26.90;99.90;;;;;;5131368;27;19918;-66
2021/06/23 06:11:33;;;;;;;;;;;27.00;99.90;;;;;;5123037;27;19942;-69
2021/06/23 06:13:59;;;;;;;;;;;27.10;99.90;;;;;;5119873;27;19930;-68
2021/06/23 06:16:24;;;;;;;;;;;27.10;99.90;;;;;;5101591;27;19919;-66
2021/06/23 06:18:50;;;;;;;;;;;27.10;99.90;;;;;;5120291;27;20010;-66
2021/06/23 06:21:16;;;;;;;;;;;27.20;99.90;;;;;;5124925;27;20397;-66
2021/06/23 06:23:42;;;;;;;;;;;27.30;99.90;;;;;;5120067;27;19912;-67
2021/06/23 06:26:09;;;;;;;;;;;27.50;99.90;;;;;;5103096;27;20141;-68
2021/06/23 06:28:35;;;;;;;;;;;27.50;99.90;;;;;;5103965;27;19912;-66
2021/06/23 06:31:01;;;;;;;;;;;27.70;99.90;;;;;;5100055;27;19992;-67
2021/06/23 06:33:27;;;;;;;;;;;27.70;99.90;;;;;;5099094;28;19912;-66
2021/06/23 06:35:52;;;;;;;;;;;27.80;99.90;;;;;;5099038;28;19915;-66
2021/06/23 06:38:18;;;;;;;;;;;27.80;99.90;;;;;;5098121;28;19980;-67
2021/06/23 06:40:44;;;;;;;;;;;27.90;99.90;;;;;;5107906;27;19958;-70
2021/06/23 06:43:11;;;;;;;;;;;28.00;99.90;;;;;;5106576;28;20111;-69
2021/06/23 06:45:37;;;;;;;;;;;28.30;99.90;;;;;;5098189;27;19992;-67
2021/06/23 06:48:02;;;;;;;;;;;28.40;99.90;;;;;;5118926;27;19912;-68
2021/06/23 06:50:28;;;;;;;;;;;28.60;99.90;;;;;;5109986;27;19991;-69
2021/06/23 06:52:54;;;;;;;;;;;28.80;99.90;;;;;;5111849;27;19911;-67
2021/06/23 06:55:22;;;;;;;;;;;28.80;99.90;;;;;;5116986;27;19956;-67
2021/06/23 06:57:49;;;;;;;;;;;28.70;99.90;;;;;;5117698;27;20170;-67
2021/06/23 07:00:16;;;;;;;;;;;28.70;99.90;;;;;;5116485;28;19967;-69
2021/06/23 07:02:41;;;;;;;;;;;28.60;99.90;;;;;;5109782;28;20014;-66
2021/06/23 07:05:07;;;;;;;;;;;28.50;99.90;;;;;;5110800;28;20386;-70
2021/06/23 07:07:33;;;;;;;;;;;28.50;99.90;;;;;;5103656;28;19911;-68
2021/06/23 07:09:58;;;;;;;;;;;28.50;99.90;;;;;;5102811;28;20006;-70
2021/06/23 07:12:24;;;;;;;;;;;28.40;99.90;;;;;;5110417;28;19951;-68
2021/06/23 07:14:49;;;;;;;;;;;28.40;99.90;;;;;;5109324;28;19918;-66
2021/06/23 07:17:15;;;;;;;;;;;28.30;99.90;;;;;;5110061;28;19920;-70
2021/06/23 07:19:40;;;;;;;;;;;28.20;99.90;;;;;;5107966;28;19919;-67
2021/06/23 07:22:06;;;;;;;;;;;28.20;99.90;;;;;;5110074;28;19915;-68
2021/06/23 07:24:31;;;;;;;;;;;28.20;99.90;;;;;;5110150;28;20329;-66
2021/06/23 07:27:00;;;;;;;;;;;28.20;99.90;;;;;;5109846;28;19912;-69
2021/06/23 07:29:26;;;;;;;;;;;28.10;99.90;;;;;;5108552;28;20008;-65
2021/06/23 07:37:07;;;;;;;;;;;28.10;99.90;;;;;;5105432;28;20349;-70
2021/06/23 07:39:34;;;;;;;;;;;28.10;99.90;;;;;;5095106;28;19957;-66
2021/06/23 07:42:01;;;;;;;;;;;28.10;99.90;;;;;;5110258;28;19916;-66
2021/06/23 07:44:51;;;;;;;;;;;28.20;99.90;;;;;;5110567;28;19912;-66
2021/06/23 07:47:24;;;;;;;;;;;28.30;99.90;;;;;;5109667;28;19908;-66
2021/06/23 07:49:50;;;;;;;;;;;28.30;99.90;;;;;;5096690;28;19938;-65
2021/06/23 08:13:11;;;;;;;;;;;28.30;99.90;;;;;;5108021;28;19964;-69
2021/06/23 08:15:38;;;;;;;;;;;28.20;99.90;;;;;;5110042;28;20311;-67
2021/06/23 08:18:04;;;;;;;;;;;28.20;99.90;;;;;;5113269;28;19915;-67
2021/06/23 08:20:29;;;;;;;;;;;28.30;99.90;;;;;;5125038;27;20041;-67
2021/06/23 08:22:55;;;;;;;;;;;28.40;99.90;;;;;;5134484;27;19907;-68
2021/06/23 08:25:21;;;;;;;;;;;28.40;99.90;;;;;;5116972;27;19972;-70
2021/06/23 08:27:47;;;;;;;;;;;28.40;99.90;;;;;;5113708;28;19987;-68
2021/06/23 08:30:14;;;;;;;;;;;28.50;99.90;;;;;;5114045;28;19940;-68
2021/06/23 08:32:39;;;;;;;;;;;28.40;99.90;;;;;;5114879;28;19953;-68
2021/06/23 08:35:06;;;;;;;;;;;28.40;99.90;;;;;;5114426;28;19911;-68
2021/06/23 08:37:31;;;;;;;;;;;28.40;99.90;;;;;;5113700;28;19916;-67
2021/06/23 08:39:57;;;;;;;;;;;28.40;99.90;;;;;;5114435;28;20337;-68
2021/06/23 08:42:23;;;;;;;;;;;28.40;99.90;;;;;;5114083;28;19919;-68
2021/06/23 08:44:48;;;;;;;;;;;28.30;99.90;;;;;;5113989;28;19912;-68
2021/06/23 08:47:14;;;;;;;;;;;28.30;99.90;;;;;;5113908;28;19919;-67
2021/06/23 08:49:42;;;;;;;;;;;28.30;99.90;;;;;;5113504;28;20573;-69
2021/06/23 08:52:08;;;;;;;;;;;28.20;99.90;;;;;;5113389;28;19908;-67
2021/06/23 08:54:33;;;;;;;;;;;28.30;99.90;;;;;;5094075;28;19927;-69
2021/06/23 08:56:59;;;;;;;;;;;28.20;99.90;;;;;;5093028;28;19923;-68
2021/06/23 08:59:25;;;;;;;;;;;28.20;99.90;;;;;;5092663;28;20384;-68
2021/06/23 09:01:50;;;;;;;;;;;28.20;99.90;;;;;;5093165;28;19989;-68
2021/06/23 09:04:17;;;;;;;;;;;28.30;99.90;;;;;;5092358;28;20393;-68
2021/06/23 09:06:50;;;;;;;;;;;28.40;99.90;;;;;;5107710;28;19912;-68
2021/06/23 09:09:22;;;;;;;;;;;28.40;99.90;;;;;;5112807;28;19907;-68
2021/06/23 09:11:48;;;;;;;;;;;28.30;99.90;;;;;;5112931;28;19995;-69
2021/06/23 09:14:15;;;;;;;;;;;28.30;99.90;;;;;;5112896;28;19944;-68
2021/06/23 09:17:00;;;;;;;;;;;28.30;99.90;;;;;;5112603;28;19911;-68
2021/06/23 09:19:26;;;;;;;;;;;28.30;99.90;;;;;;5111410;28;19930;-68
2021/06/23 09:21:52;;;;;;;;;;;28.40;99.90;;;;;;5112452;28;19972;-68
2021/06/23 09:24:17;;;;;;;;;;;28.40;99.90;;;;;;5112064;28;20323;-68
2021/06/23 09:26:43;;;;;;;;;;;28.30;99.90;;;;;;5110808;28;19962;-68
2021/06/23 09:29:16;;;;;;;;;;;28.30;99.90;;;;;;5110614;28;19907;-68
2021/06/23 09:31:51;;;;;;;;;;;28.40;99.90;;;;;;5112486;28;19934;-68
2021/06/23 09:34:23;;;;;;;;;;;28.50;99.90;;;;;;5112265;28;20010;-68
2021/06/23 09:36:49;;;;;;;;;;;28.50;99.90;;;;;;5112203;28;19961;-68
2021/06/23 09:39:22;;;;;;;;;;;28.60;99.90;;;;;;5111990;28;19916;-68
2021/06/23 09:41:49;;;;;;;;;;;28.60;99.90;;;;;;5111891;28;20010;-68
2021/06/23 09:44:14;;;;;;;;;;;28.50;99.90;;;;;;5112083;28;19942;-67
2021/06/23 09:46:41;;;;;;;;;;;28.50;99.90;;;;;;5112277;28;19912;-69
2021/06/23 09:49:11;;;;;;;;;;;28.50;99.90;;;;;;5112918;28;19999;-68
2021/06/23 09:51:47;;;;;;;;;;;28.50;99.90;;;;;;5113076;28;19908;-68
2021/06/23 09:54:14;;;;;;;;;;;28.50;99.90;;;;;;5112816;28;20386;-68
2021/06/23 09:56:46;;;;;;;;;;;28.50;99.90;;;;;;5109862;28;19936;-69
2021/06/23 09:59:24;;;;;;;;;;;28.50;99.90;;;;;;5112146;28;19958;-68
2021/06/23 10:01:50;;;;;;;;;;;28.50;99.90;;;;;;5112331;28;20355;-68
2021/06/23 10:04:15;;;;;;;;;;;28.50;99.90;;;;;;5111466;28;19915;-69
2021/06/23 10:06:44;;;;;;;;;;;28.40;99.90;;;;;;5111423;28;19947;-67
2021/06/23 10:09:20;;;;;;;;;;;28.30;99.90;;;;;;5110853;28;19915;-69
2021/06/23 10:11:47;;;;;;;;;;;28.40;99.90;;;;;;5109624;28;19912;-67
2021/06/23 10:14:12;;;;;;;;;;;28.50;99.90;;;;;;5111013;28;20529;-68
2021/06/23 10:16:38;;;;;;;;;;;28.60;99.90;;;;;;5111414;28;19918;-67
2021/06/23 10:19:06;;;;;;;;;;;28.60;99.90;;;;;;5111104;28;20293;-67
2021/06/23 10:21:32;;;;;;;;;;;28.70;99.90;;;;;;5111546;28;19919;-69
2021/06/23 10:23:58;;;;;;;;;;;28.80;99.90;;;;;;5111699;28;19949;-67
2021/06/23 10:26:27;;;;;;;;;;;28.70;99.90;;;;;;5111437;28;19911;-68
2021/06/23 10:28:53;;;;;;;;;;;28.70;99.90;;;;;;5111574;28;19914;-66
2021/06/23 10:31:20;;;;;;;;;;;28.70;99.90;;;;;;5107649;28;19919;-67
2021/06/23 10:33:47;;;;;;;;;;;28.60;99.90;;;;;;5110919;28;19912;-67
2021/06/23 10:36:13;;;;;;;;;;;28.50;99.90;;;;;;5109989;28;20530;-69
2021/06/23 10:38:39;;;;;;;;;;;28.40;99.90;;;;;;5110957;28;19959;-69
2021/06/23 10:41:04;;;;;;;;;;;28.30;99.90;;;;;;5111647;28;20354;-67
2021/06/23 10:43:30;;;;;;;;;;;28.40;99.90;;;;;;5110240;28;19908;-67
2021/06/23 10:45:56;;;;;;;;;;;28.50;99.90;;;;;;5107075;28;19941;-66
2021/06/23 10:48:22;;;;;;;;;;;28.50;99.90;;;;;;5111560;28;19920;-66
2021/06/23 10:50:47;;;;;;;;;;;28.50;99.90;;;;;;5112301;28;19908;-68
2021/06/23 10:53:42;;;;;;;;;;;28.60;99.90;;;;;;5106088;28;19954;-68
2021/06/23 10:56:08;;;;;;;;;;;28.70;99.90;;;;;;5095476;28;20357;-68
2021/06/23 10:58:34;;;;;;;;;;;28.90;99.90;;;;;;5111008;28;19933;-68
2021/06/23 11:01:06;;;;;;;;;;;28.90;99.90;;;;;;5111774;28;19919;-66
2021/06/23 11:03:31;;;;;;;;;;;29.10;99.90;;;;;;5110824;28;19931;-68
2021/06/23 11:05:57;;;;;;;;;;;29.20;99.90;;;;;;5110877;28;20400;-66
2021/06/23 11:08:33;;;;;;;;;;;29.20;99.90;;;;;;5111013;28;19960;-66
2021/06/23 11:10:59;;;;;;;;;;;29.00;99.90;;;;;;5110082;28;19912;-67
2021/06/23 11:13:26;;;;;;;;;;;29.10;99.90;;;;;;5111041;28;19912;-68
2021/06/23 11:15:53;;;;;;;;;;;29.10;99.90;;;;;;5092507;28;20052;-66
2021/06/23 11:18:33;;;;;;;;;;;29.00;99.90;;;;;;5110815;28;20327;-67
2021/06/23 11:21:05;;;;;;;;;;;29.00;99.90;;;;;;5108562;28;19916;-66
2021/06/23 11:23:40;;;;;;;;;;;29.00;99.90;;;;;;5110284;28;19912;-69
2021/06/23 11:26:06;;;;;;;;;;;28.80;99.90;;;;;;5110308;28;19937;-67
2021/06/23 11:28:32;;;;;;;;;;;28.90;99.90;;;;;;5111024;28;19918;-69
2021/06/23 11:31:06;;;;;;;;;;;28.80;99.90;;;;;;5111197;28;19994;-66
2021/06/23 11:33:37;;;;;;;;;;;28.70;99.90;;;;;;5111781;28;19914;-68
2021/06/23 11:36:03;;;;;;;;;;;28.80;99.90;;;;;;5111305;28;19912;-69
2021/06/23 11:38:28;;;;;;;;;;;28.90;99.90;;;;;;5110661;28;19912;-66
2021/06/23 11:40:55;;;;;;;;;;;28.90;99.90;;;;;;5110731;28;19923;-67
2021/06/23 11:43:21;;;;;;;;;;;28.80;99.90;;;;;;5113706;28;20011;-68
2021/06/23 11:45:47;;;;;;;;;;;28.80;99.90;;;;;;5114117;28;19959;-68
2021/06/23 11:48:13;;;;;;;;;;;28.80;99.90;;;;;;5114270;28;19908;-68
2021/06/23 11:50:40;;;;;;;;;;;28.90;99.90;;;;;;5113810;28;19957;-66
2021/06/23 11:53:08;;;;;;;;;;;28.80;99.90;;;;;;5114308;28;19920;-68
2021/06/23 11:55:34;;;;;;;;;;;28.90;99.90;;;;;;5095449;28;20273;-66
2021/06/23 11:58:00;;;;;;;;;;;28.90;99.90;;;;;;5114151;28;19983;-68
2021/06/23 12:00:27;;;;;;;;;;;29.00;99.90;;;;;;5112219;28;19970;-68
2021/06/23 12:02:53;;;;;;;;;;;29.10;99.90;;;;;;5113939;28;20031;-66
2021/06/23 12:05:19;;;;;;;;;;;29.20;99.90;;;;;;5114385;28;20381;-69
2021/06/23 12:07:45;;;;;;;;;;;29.20;99.90;;;;;;5096138;28;19938;-67
2021/06/23 12:10:11;;;;;;;;;;;29.10;99.90;;;;;;5114048;28;20357;-68
2021/06/23 12:12:37;;;;;;;;;;;28.90;99.90;;;;;;5114563;28;19914;-68
2021/06/23 12:15:08;;;;;;;;;;;28.90;99.90;;;;;;5114337;28;19908;-67
2021/06/23 12:17:34;;;;;;;;;;;29.00;99.90;;;;;;5115514;27;19916;-68
2021/06/23 12:20:01;;;;;;;;;;;29.20;99.90;;;;;;5113827;28;19914;-68
2021/06/23 12:22:27;;;;;;;;;;;29.20;99.90;;;;;;5114375;28;19911;-68
2021/06/23 12:24:53;;;;;;;;;;;29.30;99.90;;;;;;5114193;28;19908;-68
2021/06/23 12:27:18;;;;;;;;;;;29.40;99.90;;;;;;5113719;28;19911;-68
2021/06/23 12:29:44;;;;;;;;;;;29.40;99.90;;;;;;5113514;28;19915;-67
2021/06/23 12:32:09;;;;;;;;;;;29.60;99.90;;;;;;5109878;28;20370;-68
2021/06/23 12:34:35;;;;;;;;;;;29.40;99.90;;;;;;5113224;28;19915;-67
2021/06/23 12:37:01;;;;;;;;;;;29.40;99.90;;;;;;5113843;28;19915;-68
2021/06/23 12:39:26;;;;;;;;;;;29.50;99.90;;;;;;5114252;28;19990;-68
2021/06/23 12:41:52;;;;;;;;;;;29.50;99.90;;;;;;5113992;28;20292;-69
2021/06/23 12:44:18;;;;;;;;;;;29.50;99.90;;;;;;5111961;28;19950;-68
2021/06/23 12:46:44;;;;;;;;;;;29.60;99.90;;;;;;5113894;28;19943;-69
2021/06/23 12:49:10;;;;;;;;;;;29.80;99.90;;;;;;5113983;28;20347;-68
2021/06/23 12:51:35;;;;;;;;;;;29.60;99.90;;;;;;5113276;28;20285;-67
2021/06/23 12:54:01;;;;;;;;;;;29.60;99.90;;;;;;5111826;28;19912;-68
2021/06/23 12:56:27;;;;;;;;;;;29.50;99.90;;;;;;5113114;28;19998;-66
2021/06/23 12:58:53;;;;;;;;;;;29.50;99.90;;;;;;5113090;28;19908;-66
2021/06/23 13:01:19;;;;;;;;;;;29.40;99.90;;;;;;5111228;28;20433;-67
2021/06/23 13:03:45;;;;;;;;;;;29.50;99.90;;;;;;5113641;27;19960;-66
2021/06/23 13:06:10;;;;;;;;;;;29.60;99.90;;;;;;5113140;28;19918;-67
2021/06/23 13:08:37;;;;;;;;;;;29.70;99.90;;;;;;5112169;28;20004;-69
2021/06/23 13:11:03;;;;;;;;;;;29.60;99.90;;;;;;5112725;28;20361;-67
2021/06/23 13:13:28;;;;;;;;;;;29.70;99.90;;;;;;5120280;27;19953;-68
2021/06/23 13:15:55;;;;;;;;;;;29.80;99.90;;;;;;5113123;28;19908;-68
2021/06/23 13:18:21;;;;;;;;;;;29.70;99.90;;;;;;5112599;28;19919;-68
2021/06/23 13:20:46;;;;;;;;;;;29.60;99.90;;;;;;5112741;28;19918;-67
2021/06/23 13:23:12;;;;;;;;;;;29.50;99.90;;;;;;5112733;28;19994;-68
2021/06/23 13:25:38;;;;;;;;;;;29.60;99.90;;;;;;5112289;28;19964;-68
2021/06/23 13:28:04;;;;;;;;;;;29.70;99.90;;;;;;5112098;28;19915;-67
2021/06/23 13:30:32;;;;;;;;;;;29.70;99.90;;;;;;5112340;28;19958;-67
2021/06/23 13:32:58;;;;;;;;;;;29.60;99.90;;;;;;5085626;28;19912;-68
2021/06/23 13:35:24;;;;;;;;;;;29.70;99.90;;;;;;5105065;28;20344;-66
2021/06/23 13:37:50;;;;;;;;;;;29.90;99.90;;;;;;5111324;28;20003;-69
2021/06/23 13:40:16;;;;;;;;;;;29.90;99.90;;;;;;5117863;27;19911;-68
2021/06/23 13:42:42;;;;;;;;;;;30.10;99.90;;;;;;5111392;28;19919;-67
2021/06/23 13:45:08;;;;;;;;;;;30.30;99.90;;;;;;5112356;28;19912;-69
2021/06/23 13:47:34;;;;;;;;;;;30.40;99.90;;;;;;5110673;28;19915;-68
2021/06/23 13:50:00;;;;;;;;;;;30.70;99.90;;;;;;5118354;27;20381;-67
2021/06/23 13:52:25;;;;;;;;;;;30.80;99.90;;;;;;5111730;28;19916;-68
2021/06/23 13:54:51;;;;;;;;;;;31.10;99.90;;;;;;5109153;28;20008;-68
2021/06/23 13:57:17;;;;;;;;;;;31.10;99.90;;;;;;5111305;28;19962;-67
2021/06/23 13:59:43;;;;;;;;;;;31.00;99.90;;;;;;5110700;28;19965;-67
2021/06/23 14:02:08;;;;;;;;;;;30.80;99.90;;;;;;5107633;28;20385;-67
2021/06/23 14:04:34;;;;;;;;;;;30.80;99.90;;;;;;5111876;28;19915;-67
2021/06/23 14:07:00;;;;;;;;;;;30.70;99.90;;;;;;5111239;28;19951;-68
2021/06/23 14:09:25;;;;;;;;;;;30.70;99.90;;;;;;5111407;28;19908;-68
2021/06/23 14:11:51;;;;;;;;;;;30.70;99.90;;;;;;5111454;28;19912;-67
2021/06/23 14:14:17;;;;;;;;;;;30.80;99.90;;;;;;5108986;28;20554;-67
2021/06/23 14:16:42;;;;;;;;;;;30.80;99.90;;;;;;5111182;28;19951;-68
2021/06/23 14:19:08;;;;;;;;;;;30.80;99.90;;;;;;5111376;28;19919;-68
2021/06/23 14:21:34;;;;;;;;;;;30.80;99.90;;;;;;5111767;28;20491;-67
2021/06/23 14:24:00;;;;;;;;;;;30.60;99.90;;;;;;5111703;28;19907;-68
2021/06/23 14:26:26;;;;;;;;;;;30.80;99.90;;;;;;5111390;28;20052;-67
2021/06/23 14:28:51;;;;;;;;;;;30.90;99.90;;;;;;5111471;28;19914;-67
2021/06/23 14:31:17;;;;;;;;;;;30.90;99.90;;;;;;5111340;28;19912;-69
2021/06/23 14:33:43;;;;;;;;;;;30.90;99.90;;;;;;5112020;28;20347;-69
2021/06/23 14:36:09;;;;;;;;;;;30.90;99.90;;;;;;5111242;28;19949;-68
2021/06/23 14:38:36;;;;;;;;;;;30.90;99.90;;;;;;5111149;28;19923;-68